sensor_id;sensor_type;location;lat;lon;timestamp;pressure;altitude;pressure_sealevel;temperature;humidity
76201;BME280;64981;52.930;9.266;2024-02-14T00:02:07;101313.88;;;6.50;71.31
76201;BME280;64981;52.930;9.266;2024-02-14T00:04:32;101303.13;;;6.53;71.40
76201;BME280;64981;52.930;9.266;2024-02-14T00:06:58;101305.25;;;6.59;71.37
76201;BME280;64981;52.930;9.266;2024-02-14T00:09:24;101307.28;;;6.56;71.33
76201;BME280;64981;52.930;9.266;2024-02-14T00:11:49;101306.22;;;6.58;71.12
76201;BME280;64981;52.930;9.266;2024-02-14T00:14:15;101309.81;;;6.57;71.35
76201;BME280;64981;52.930;9.266;2024-02-14T00:16:41;101302.69;;;6.48;71.58
76201;BME280;64981;52.930;9.266;2024-02-14T00:19:07;101298.00;;;6.52;71.48
76201;BME280;64981;52.930;9.266;2024-02-14T00:21:33;101293.69;;;6.62;71.02
76201;BME280;64981;52.930;9.266;2024-02-14T00:24:00;101293.72;;;6.40;71.81
76201;BME280;64981;52.930;9.266;2024-02-14T00:26:27;101291.19;;;6.61;71.45
76201;BME280;64981;52.930;9.266;2024-02-14T00:28:52;101286.88;;;6.82;70.50
76201;BME280;64981;52.930;9.266;2024-02-14T00:31:18;101296.66;;;6.69;71.32
76201;BME280;64981;52.930;9.266;2024-02-14T00:33:43;101286.66;;;6.63;71.66
76201;BME280;64981;52.930;9.266;2024-02-14T00:36:11;101286.75;;;6.72;71.41
76201;BME280;64981;52.930;9.266;2024-02-14T00:38:37;101284.84;;;6.63;71.91
76201;BME280;64981;52.930;9.266;2024-02-14T00:41:03;101260.16;;;6.66;71.57
76201;BME280;64981;52.930;9.266;2024-02-14T00:43:29;101278.03;;;6.72;71.62
76201;BME280;64981;52.930;9.266;2024-02-14T00:45:54;101278.16;;;6.81;71.78
76201;BME280;64981;52.930;9.266;2024-02-14T00:48:22;101274.38;;;6.63;72.72
76201;BME280;64981;52.930;9.266;2024-02-14T00:50:48;101273.38;;;6.75;71.89
76201;BME280;64981;52.930;9.266;2024-02-14T00:53:14;101272.31;;;6.67;72.92
76201;BME280;64981;52.930;9.266;2024-02-14T00:55:39;101272.19;;;6.68;72.94
76201;BME280;64981;52.930;9.266;2024-02-14T00:58:06;101261.94;;;6.65;72.93
76201;BME280;64981;52.930;9.266;2024-02-14T01:00:31;101259.19;;;6.67;73.16
76201;BME280;64981;52.930;9.266;2024-02-14T01:02:58;101255.84;;;6.65;73.29
76201;BME280;64981;52.930;9.266;2024-02-14T01:05:24;101261.25;;;6.63;73.30
76201;BME280;64981;52.930;9.266;2024-02-14T01:07:50;101264.56;;;6.65;73.25
76201;BME280;64981;52.930;9.266;2024-02-14T01:10:15;101254.94;;;6.54;73.41
76201;BME280;64981;52.930;9.266;2024-02-14T01:12:41;101252.91;;;6.58;73.42
76201;BME280;64981;52.930;9.266;2024-02-14T01:15:07;101254.91;;;6.66;72.75
76201;BME280;64981;52.930;9.266;2024-02-14T01:17:33;101251.94;;;6.59;73.34
76201;BME280;64981;52.930;9.266;2024-02-14T01:20:01;101234.25;;;6.72;72.54
76201;BME280;64981;52.930;9.266;2024-02-14T01:22:28;101240.44;;;6.71;72.02
76201;BME280;64981;52.930;9.266;2024-02-14T01:24:53;101233.22;;;6.64;72.34
76201;BME280;64981;52.930;9.266;2024-02-14T01:27:19;101242.63;;;6.55;73.20
76201;BME280;64981;52.930;9.266;2024-02-14T01:29:47;101239.09;;;6.45;74.08
76201;BME280;64981;52.930;9.266;2024-02-14T01:32:12;101241.00;;;6.43;74.43
76201;BME280;64981;52.930;9.266;2024-02-14T01:34:38;101243.63;;;6.43;74.11
76201;BME280;64981;52.930;9.266;2024-02-14T01:37:03;101229.31;;;6.47;74.38
76201;BME280;64981;52.930;9.266;2024-02-14T01:39:29;101221.44;;;6.47;74.88
76201;BME280;64981;52.930;9.266;2024-02-14T01:41:56;101221.19;;;6.50;75.05
76201;BME280;64981;52.930;9.266;2024-02-14T01:44:22;101218.72;;;6.37;75.50
76201;BME280;64981;52.930;9.266;2024-02-14T01:46:47;101212.19;;;6.32;75.86
76201;BME280;64981;52.930;9.266;2024-02-14T01:49:15;101208.13;;;6.39;76.17
76201;BME280;64981;52.930;9.266;2024-02-14T01:51:43;101203.84;;;6.27;76.65
76201;BME280;64981;52.930;9.266;2024-02-14T01:54:12;101199.28;;;6.40;76.13
76201;BME280;64981;52.930;9.266;2024-02-14T01:56:39;101201.78;;;6.30;77.05
76201;BME280;64981;52.930;9.266;2024-02-14T01:59:05;101193.69;;;6.33;77.38
76201;BME280;64981;52.930;9.266;2024-02-14T02:01:31;101190.97;;;6.24;78.00
76201;BME280;64981;52.930;9.266;2024-02-14T02:03:58;101187.88;;;6.30;78.48
76201;BME280;64981;52.930;9.266;2024-02-14T02:06:24;101193.56;;;6.35;78.17
76201;BME280;64981;52.930;9.266;2024-02-14T02:08:51;101177.97;;;6.22;78.80
76201;BME280;64981;52.930;9.266;2024-02-14T02:11:17;101184.16;;;6.32;78.49
76201;BME280;64981;52.930;9.266;2024-02-14T02:13:43;101179.66;;;6.12;80.05
76201;BME280;64981;52.930;9.266;2024-02-14T02:16:09;101183.13;;;6.13;80.58
76201;BME280;64981;52.930;9.266;2024-02-14T02:18:35;101167.41;;;6.13;80.47
76201;BME280;64981;52.930;9.266;2024-02-14T02:21:00;101161.00;;;5.94;81.52
76201;BME280;64981;52.930;9.266;2024-02-14T02:23:29;101163.00;;;6.02;81.19
76201;BME280;64981;52.930;9.266;2024-02-14T02:25:56;101160.63;;;5.99;82.03
76201;BME280;64981;52.930;9.266;2024-02-14T02:28:21;101158.63;;;5.91;82.15
76201;BME280;64981;52.930;9.266;2024-02-14T02:30:47;101140.66;;;5.76;82.95
76201;BME280;64981;52.930;9.266;2024-02-14T02:33:13;101151.38;;;5.84;83.21
76201;BME280;64981;52.930;9.266;2024-02-14T02:35:41;101151.38;;;5.73;83.24
76201;BME280;64981;52.930;9.266;2024-02-14T02:38:07;101144.34;;;5.84;82.94
76201;BME280;64981;52.930;9.266;2024-02-14T02:40:33;101143.53;;;5.73;83.73
76201;BME280;64981;52.930;9.266;2024-02-14T02:42:58;101138.63;;;5.68;83.81
76201;BME280;64981;52.930;9.266;2024-02-14T02:45:25;101147.22;;;5.70;84.20
76201;BME280;64981;52.930;9.266;2024-02-14T02:47:51;101127.78;;;5.62;84.58
76201;BME280;64981;52.930;9.266;2024-02-14T02:50:17;101141.16;;;5.70;84.75
76201;BME280;64981;52.930;9.266;2024-02-14T02:52:43;101140.66;;;5.65;85.15
76201;BME280;64981;52.930;9.266;2024-02-14T02:55:08;101135.78;;;5.60;85.51
76201;BME280;64981;52.930;9.266;2024-02-14T02:57:35;101137.56;;;5.48;86.25
76201;BME280;64981;52.930;9.266;2024-02-14T03:00:03;101141.63;;;5.64;85.64
76201;BME280;64981;52.930;9.266;2024-02-14T03:02:33;101126.50;;;5.56;85.79
76201;BME280;64981;52.930;9.266;2024-02-14T03:04:59;101124.13;;;5.53;87.15
76201;BME280;64981;52.930;9.266;2024-02-14T03:07:25;101121.50;;;5.53;87.22
76201;BME280;64981;52.930;9.266;2024-02-14T03:09:52;101106.75;;;5.41;88.07
76201;BME280;64981;52.930;9.266;2024-02-14T03:12:17;101112.22;;;5.38;88.88
76201;BME280;64981;52.930;9.266;2024-02-14T03:14:44;101100.66;;;5.40;88.99
76201;BME280;64981;52.930;9.266;2024-02-14T03:17:09;101106.25;;;5.47;89.35
76201;BME280;64981;52.930;9.266;2024-02-14T03:19:36;101095.69;;;5.37;89.83
76201;BME280;64981;52.930;9.266;2024-02-14T03:22:04;101094.00;;;5.36;90.25
76201;BME280;64981;52.930;9.266;2024-02-14T03:24:31;101096.25;;;5.30;90.32
76201;BME280;64981;52.930;9.266;2024-02-14T03:26:57;101087.22;;;5.34;90.76
76201;BME280;64981;52.930;9.266;2024-02-14T03:29:22;101082.13;;;5.10;91.65
76201;BME280;64981;52.930;9.266;2024-02-14T03:31:48;101072.22;;;5.36;90.26
76201;BME280;64981;52.930;9.266;2024-02-14T03:34:14;101075.19;;;5.31;90.78
76201;BME280;64981;52.930;9.266;2024-02-14T03:36:40;101057.72;;;5.32;90.67
76201;BME280;64981;52.930;9.266;2024-02-14T03:39:05;101060.19;;;5.33;90.93
76201;BME280;64981;52.930;9.266;2024-02-14T03:41:32;101052.47;;;5.21;91.39
76201;BME280;64981;52.930;9.266;2024-02-14T03:43:58;101055.06;;;5.43;90.72
76201;BME280;64981;52.930;9.266;2024-02-14T03:46:27;101065.19;;;5.36;91.21
76201;BME280;64981;52.930;9.266;2024-02-14T03:48:54;101063.16;;;5.51;90.65
76201;BME280;64981;52.930;9.266;2024-02-14T03:51:19;101061.38;;;5.40;90.71
76201;BME280;64981;52.930;9.266;2024-02-14T03:53:46;101047.00;;;5.35;91.09
76201;BME280;64981;52.930;9.266;2024-02-14T03:56:12;101045.06;;;5.37;91.00
76201;BME280;64981;52.930;9.266;2024-02-14T03:58:39;101061.75;;;5.25;91.86
76201;BME280;64981;52.930;9.266;2024-02-14T04:01:05;101056.16;;;5.18;92.96
76201;BME280;64981;52.930;9.266;2024-02-14T04:03:31;101064.59;;;5.33;91.60
76201;BME280;64981;52.930;9.266;2024-02-14T04:05:57;101067.13;;;5.23;92.11
76201;BME280;64981;52.930;9.266;2024-02-14T04:08:23;101056.72;;;5.33;92.01
76201;BME280;64981;52.930;9.266;2024-02-14T04:10:48;101060.06;;;5.24;92.50
76201;BME280;64981;52.930;9.266;2024-02-14T04:13:16;101063.44;;;5.26;93.43
76201;BME280;64981;52.930;9.266;2024-02-14T04:15:42;101064.59;;;5.33;93.21
76201;BME280;64981;52.930;9.266;2024-02-14T04:18:08;101056.53;;;5.36;93.37
76201;BME280;64981;52.930;9.266;2024-02-14T04:20:35;101056.03;;;5.31;93.67
76201;BME280;64981;52.930;9.266;2024-02-14T04:23:00;101050.44;;;5.35;93.83
76201;BME280;64981;52.930;9.266;2024-02-14T04:25:26;101056.13;;;5.40;93.56
76201;BME280;64981;52.930;9.266;2024-02-14T04:27:52;101053.31;;;5.32;94.42
76201;BME280;64981;52.930;9.266;2024-02-14T04:30:17;101043.03;;;5.40;93.73
76201;BME280;64981;52.930;9.266;2024-02-14T04:32:43;101057.69;;;5.43;94.01
76201;BME280;64981;52.930;9.266;2024-02-14T04:35:09;101042.00;;;5.32;94.38
76201;BME280;64981;52.930;9.266;2024-02-14T04:37:35;101039.25;;;5.44;93.60
76201;BME280;64981;52.930;9.266;2024-02-14T04:40:02;101043.25;;;5.48;94.01
76201;BME280;64981;52.930;9.266;2024-02-14T04:42:29;101046.13;;;5.45;94.03
76201;BME280;64981;52.930;9.266;2024-02-14T04:44:55;101044.34;;;5.57;93.75
76201;BME280;64981;52.930;9.266;2024-02-14T04:47:20;101047.31;;;5.53;93.34
76201;BME280;64981;52.930;9.266;2024-02-14T04:49:46;101045.06;;;5.48;93.70
76201;BME280;64981;52.930;9.266;2024-02-14T04:52:12;101032.66;;;5.50;94.32
76201;BME280;64981;52.930;9.266;2024-02-14T04:54:38;101037.31;;;5.58;93.83
76201;BME280;64981;52.930;9.266;2024-02-14T04:57:03;101036.88;;;5.41;95.12
76201;BME280;64981;52.930;9.266;2024-02-14T04:59:30;101044.44;;;5.56;94.90
76201;BME280;64981;52.930;9.266;2024-02-14T05:01:55;101037.06;;;5.61;94.73
76201;BME280;64981;52.930;9.266;2024-02-14T05:04:22;101043.94;;;5.73;94.25
76201;BME280;64981;52.930;9.266;2024-02-14T05:06:48;101031.31;;;5.67;93.95
76201;BME280;64981;52.930;9.266;2024-02-14T05:09:15;101032.03;;;5.69;94.31
76201;BME280;64981;52.930;9.266;2024-02-14T05:11:41;101027.81;;;5.77;94.51
76201;BME280;64981;52.930;9.266;2024-02-14T05:14:07;101022.31;;;5.80;94.08
76201;BME280;64981;52.930;9.266;2024-02-14T05:16:33;101033.78;;;5.79;94.46
76201;BME280;64981;52.930;9.266;2024-02-14T05:18:58;101012.09;;;5.77;94.10
76201;BME280;64981;52.930;9.266;2024-02-14T05:21:24;100970.03;;;5.47;95.53
76201;BME280;64981;52.930;9.266;2024-02-14T05:23:49;101024.41;;;5.66;95.94
76201;BME280;64981;52.930;9.266;2024-02-14T05:26:15;101017.50;;;5.65;96.04
76201;BME280;64981;52.930;9.266;2024-02-14T05:28:41;101019.50;;;5.72;95.36
76201;BME280;64981;52.930;9.266;2024-02-14T05:31:07;101019.75;;;5.69;95.43
76201;BME280;64981;52.930;9.266;2024-02-14T05:33:33;101006.94;;;5.87;94.72
76201;BME280;64981;52.930;9.266;2024-02-14T05:35:58;101008.22;;;5.92;94.33
76201;BME280;64981;52.930;9.266;2024-02-14T05:38:24;101007.66;;;5.89;94.90
76201;BME280;64981;52.930;9.266;2024-02-14T05:40:50;101014.56;;;5.90;95.19
76201;BME280;64981;52.930;9.266;2024-02-14T05:43:16;101013.72;;;5.89;95.33
76201;BME280;64981;52.930;9.266;2024-02-14T05:45:43;100998.91;;;5.99;94.65
76201;BME280;64981;52.930;9.266;2024-02-14T05:48:09;100998.22;;;5.97;94.56
76201;BME280;64981;52.930;9.266;2024-02-14T05:50:35;101003.69;;;5.94;95.65
76201;BME280;64981;52.930;9.266;2024-02-14T05:53:01;100995.59;;;5.97;95.60
76201;BME280;64981;52.930;9.266;2024-02-14T05:55:28;100995.69;;;5.96;95.60
76201;BME280;64981;52.930;9.266;2024-02-14T05:57:53;100976.22;;;5.89;95.30
76201;BME280;64981;52.930;9.266;2024-02-14T06:00:20;100995.50;;;6.09;95.56
76201;BME280;64981;52.930;9.266;2024-02-14T06:02:47;100996.59;;;6.06;95.82
76201;BME280;64981;52.930;9.266;2024-02-14T06:05:14;100993.72;;;6.09;95.69
76201;BME280;64981;52.930;9.266;2024-02-14T06:07:40;101001.41;;;6.22;96.35
76201;BME280;64981;52.930;9.266;2024-02-14T06:10:07;100991.75;;;6.22;95.79
76201;BME280;64981;52.930;9.266;2024-02-14T06:12:33;101000.38;;;6.34;96.46
76201;BME280;64981;52.930;9.266;2024-02-14T06:15:00;100991.69;;;6.33;96.07
76201;BME280;64981;52.930;9.266;2024-02-14T06:17:25;100990.91;;;6.22;96.99
76201;BME280;64981;52.930;9.266;2024-02-14T06:19:53;101000.66;;;6.31;96.89
76201;BME280;64981;52.930;9.266;2024-02-14T06:22:19;100994.56;;;6.30;97.07
76201;BME280;64981;52.930;9.266;2024-02-14T06:24:45;101000.72;;;6.20;97.46
76201;BME280;64981;52.930;9.266;2024-02-14T06:27:13;101001.38;;;6.33;97.34
76201;BME280;64981;52.930;9.266;2024-02-14T06:29:43;101002.81;;;6.46;97.75
76201;BME280;64981;52.930;9.266;2024-02-14T06:32:11;101004.34;;;6.49;97.37
76201;BME280;64981;52.930;9.266;2024-02-14T06:34:36;101004.91;;;6.52;97.56
76201;BME280;64981;52.930;9.266;2024-02-14T06:37:02;100998.47;;;6.56;97.53
76201;BME280;64981;52.930;9.266;2024-02-14T06:39:28;101001.81;;;6.38;97.46
76201;BME280;64981;52.930;9.266;2024-02-14T06:41:53;101012.72;;;6.43;98.03
76201;BME280;64981;52.930;9.266;2024-02-14T06:44:19;100993.16;;;6.47;98.82
76201;BME280;64981;52.930;9.266;2024-02-14T06:46:44;101004.34;;;6.49;98.21
76201;BME280;64981;52.930;9.266;2024-02-14T06:49:10;100997.75;;;6.54;98.52
76201;BME280;64981;52.930;9.266;2024-02-14T06:51:35;101007.75;;;6.61;98.47
76201;BME280;64981;52.930;9.266;2024-02-14T06:54:02;101014.63;;;6.62;98.54
76201;BME280;64981;52.930;9.266;2024-02-14T06:56:30;101002.09;;;6.65;98.04
76201;BME280;64981;52.930;9.266;2024-02-14T06:58:56;101021.88;;;6.69;97.81
76201;BME280;64981;52.930;9.266;2024-02-14T07:01:26;101017.13;;;6.84;97.47
76201;BME280;64981;52.930;9.266;2024-02-14T07:03:52;101014.91;;;6.79;97.63
76201;BME280;64981;52.930;9.266;2024-02-14T07:06:18;101023.47;;;6.81;97.33
76201;BME280;64981;52.930;9.266;2024-02-14T07:08:44;101023.97;;;6.75;98.16
76201;BME280;64981;52.930;9.266;2024-02-14T07:11:10;101028.09;;;6.89;97.27
76201;BME280;64981;52.930;9.266;2024-02-14T07:13:36;101026.03;;;6.92;97.41
76201;BME280;64981;52.930;9.266;2024-02-14T07:16:02;101023.25;;;6.94;96.33
76201;BME280;64981;52.930;9.266;2024-02-14T07:18:28;101022.78;;;7.09;95.46
76201;BME280;64981;52.930;9.266;2024-02-14T07:20:53;101028.72;;;7.02;96.61
76201;BME280;64981;52.930;9.266;2024-02-14T07:23:20;101031.06;;;7.15;96.15
76201;BME280;64981;52.930;9.266;2024-02-14T07:25:46;101037.72;;;7.19;95.76
76201;BME280;64981;52.930;9.266;2024-02-14T07:28:11;101031.09;;;7.24;95.98
76201;BME280;64981;52.930;9.266;2024-02-14T07:30:37;101033.19;;;7.21;95.69
76201;BME280;64981;52.930;9.266;2024-02-14T07:33:03;101037.72;;;7.19;95.97
76201;BME280;64981;52.930;9.266;2024-02-14T07:35:29;101028.75;;;7.21;96.09
76201;BME280;64981;52.930;9.266;2024-02-14T07:37:55;101032.66;;;7.27;96.23
76201;BME280;64981;52.930;9.266;2024-02-14T07:40:22;101037.50;;;7.31;96.47
76201;BME280;64981;52.930;9.266;2024-02-14T07:42:48;101037.94;;;7.46;95.69
76201;BME280;64981;52.930;9.266;2024-02-14T07:45:14;101026.44;;;7.37;96.01
76201;BME280;64981;52.930;9.266;2024-02-14T07:47:40;101035.88;;;7.49;95.48
76201;BME280;64981;52.930;9.266;2024-02-14T07:50:06;101034.63;;;7.44;96.68
76201;BME280;64981;52.930;9.266;2024-02-14T07:52:32;101038.78;;;7.46;96.87
76201;BME280;64981;52.930;9.266;2024-02-14T07:54:58;101037.00;;;7.47;97.08
76201;BME280;64981;52.930;9.266;2024-02-14T07:57:24;101037.00;;;7.56;96.85
76201;BME280;64981;52.930;9.266;2024-02-14T07:59:51;101041.44;;;7.65;96.11
76201;BME280;64981;52.930;9.266;2024-02-14T08:02:19;101041.16;;;7.59;96.92
76201;BME280;64981;52.930;9.266;2024-02-14T08:04:45;101055.44;;;7.66;96.71
76201;BME280;64981;52.930;9.266;2024-02-14T08:07:11;101051.97;;;7.75;96.05
76201;BME280;64981;52.930;9.266;2024-02-14T08:09:36;101051.88;;;7.77;95.81
76201;BME280;64981;52.930;9.266;2024-02-14T08:12:04;101051.03;;;7.76;96.33
76201;BME280;64981;52.930;9.266;2024-02-14T08:14:30;101057.94;;;7.87;95.87
76201;BME280;64981;52.930;9.266;2024-02-14T08:16:56;101053.97;;;7.92;95.35
76201;BME280;64981;52.930;9.266;2024-02-14T08:19:22;101051.72;;;7.97;95.48
76201;BME280;64981;52.930;9.266;2024-02-14T08:21:47;101056.03;;;7.98;95.55
76201;BME280;64981;52.930;9.266;2024-02-14T08:24:13;101056.03;;;7.98;95.39
76201;BME280;64981;52.930;9.266;2024-02-14T08:26:38;101054.50;;;7.86;96.58
76201;BME280;64981;52.930;9.266;2024-02-14T08:29:04;101057.13;;;8.05;95.93
76201;BME280;64981;52.930;9.266;2024-02-14T08:31:30;101061.03;;;8.21;94.83
76201;BME280;64981;52.930;9.266;2024-02-14T08:33:56;101062.66;;;8.12;95.51
76201;BME280;64981;52.930;9.266;2024-02-14T08:36:22;101067.66;;;8.25;95.32
76201;BME280;64981;52.930;9.266;2024-02-14T08:38:48;101070.44;;;8.23;95.32
76201;BME280;64981;52.930;9.266;2024-02-14T08:41:13;101065.56;;;8.38;94.37
76201;BME280;64981;52.930;9.266;2024-02-14T08:43:39;101066.41;;;8.29;95.28
76201;BME280;64981;52.930;9.266;2024-02-14T08:46:10;101073.06;;;8.33;95.50
76201;BME280;64981;52.930;9.266;2024-02-14T08:48:37;101057.28;;;8.42;94.92
76201;BME280;64981;52.930;9.266;2024-02-14T08:51:07;101070.84;;;8.47;95.23
76201;BME280;64981;52.930;9.266;2024-02-14T08:53:35;101079.69;;;8.46;94.79
76201;BME280;64981;52.930;9.266;2024-02-14T08:56:01;101074.97;;;8.59;94.58
76201;BME280;64981;52.930;9.266;2024-02-14T08:58:26;101062.38;;;8.34;95.42
76201;BME280;64981;52.930;9.266;2024-02-14T09:00:52;101077.22;;;8.54;95.61
76201;BME280;64981;52.930;9.266;2024-02-14T09:03:19;101071.81;;;8.65;94.53
76201;BME280;64981;52.930;9.266;2024-02-14T09:05:45;101077.78;;;8.67;94.51
76201;BME280;64981;52.930;9.266;2024-02-14T09:08:12;101080.69;;;8.64;95.25
76201;BME280;64981;52.930;9.266;2024-02-14T09:10:38;101078.59;;;8.68;95.15
76201;BME280;64981;52.930;9.266;2024-02-14T09:13:04;101084.38;;;8.81;95.00
76201;BME280;64981;52.930;9.266;2024-02-14T09:15:32;101083.53;;;8.81;94.86
76201;BME280;64981;52.930;9.266;2024-02-14T09:17:58;101093.25;;;8.90;94.69
76201;BME280;64981;52.930;9.266;2024-02-14T09:20:25;101093.47;;;8.96;94.14
76201;BME280;64981;52.930;9.266;2024-02-14T09:22:51;101090.19;;;8.94;94.23
76201;BME280;64981;52.930;9.266;2024-02-14T09:25:16;101095.03;;;8.99;94.56
76201;BME280;64981;52.930;9.266;2024-02-14T09:27:42;101093.47;;;8.96;95.12
76201;BME280;64981;52.930;9.266;2024-02-14T09:30:09;101100.69;;;9.04;94.77
76201;BME280;64981;52.930;9.266;2024-02-14T09:32:35;101100.78;;;9.12;94.45
76201;BME280;64981;52.930;9.266;2024-02-14T09:35:00;101100.91;;;9.20;94.79
76201;BME280;64981;52.930;9.266;2024-02-14T09:37:27;101099.22;;;9.29;94.00
76201;BME280;64981;52.930;9.266;2024-02-14T09:39:53;101109.44;;;9.41;93.75
76201;BME280;64981;52.930;9.266;2024-02-14T09:42:28;101099.03;;;9.40;93.57
76201;BME280;64981;52.930;9.266;2024-02-14T09:44:59;101110.09;;;9.43;93.82
76201;BME280;64981;52.930;9.266;2024-02-14T09:47:30;101091.66;;;9.43;93.83
76201;BME280;64981;52.930;9.266;2024-02-14T09:50:00;101106.84;;;9.59;92.73
76201;BME280;64981;52.930;9.266;2024-02-14T09:52:28;101111.19;;;9.50;94.05
76201;BME280;64981;52.930;9.266;2024-02-14T09:54:55;101110.56;;;9.66;94.83
76201;BME280;64981;52.930;9.266;2024-02-14T09:57:21;101113.91;;;9.86;93.02
76201;BME280;64981;52.930;9.266;2024-02-14T09:59:49;101100.25;;;9.72;92.58
76201;BME280;64981;52.930;9.266;2024-02-14T10:02:15;101127.09;;;9.86;92.47
76201;BME280;64981;52.930;9.266;2024-02-14T10:04:43;101121.91;;;9.94;91.38
76201;BME280;64981;52.930;9.266;2024-02-14T10:07:08;101132.38;;;9.86;91.63
76201;BME280;64981;52.930;9.266;2024-02-14T10:09:43;101136.34;;;9.99;91.19
76201;BME280;64981;52.930;9.266;2024-02-14T10:12:09;101131.31;;;10.06;90.58
76201;BME280;64981;52.930;9.266;2024-02-14T10:14:36;101136.47;;;9.98;91.23
76201;BME280;64981;52.930;9.266;2024-02-14T10:17:03;101135.94;;;9.94;91.74
76201;BME280;64981;52.930;9.266;2024-02-14T10:19:30;101136.19;;;10.01;91.90
76201;BME280;64981;52.930;9.266;2024-02-14T10:21:57;101149.84;;;9.96;92.00
76201;BME280;64981;52.930;9.266;2024-02-14T10:24:25;101142.03;;;9.95;91.75
76201;BME280;64981;52.930;9.266;2024-02-14T10:26:51;101144.25;;;9.99;91.99
76201;BME280;64981;52.930;9.266;2024-02-14T10:29:19;101149.31;;;10.10;91.72
76201;BME280;64981;52.930;9.266;2024-02-14T10:31:46;101151.72;;;10.04;91.86
76201;BME280;64981;52.930;9.266;2024-02-14T10:34:12;101146.91;;;10.17;91.69
76201;BME280;64981;52.930;9.266;2024-02-14T10:36:38;101149.91;;;10.04;90.97
76201;BME280;64981;52.930;9.266;2024-02-14T10:39:11;101158.81;;;10.30;90.70
76201;BME280;64981;52.930;9.266;2024-02-14T10:41:37;101155.47;;;10.28;91.19
76201;BME280;64981;52.930;9.266;2024-02-14T10:44:04;101164.59;;;10.34;90.41
76201;BME280;64981;52.930;9.266;2024-02-14T10:46:33;101160.53;;;10.40;90.78
76201;BME280;64981;52.930;9.266;2024-02-14T10:49:04;101164.31;;;10.37;90.36
76201;BME280;64981;52.930;9.266;2024-02-14T10:51:33;101164.13;;;10.56;89.67
76201;BME280;64981;52.930;9.266;2024-02-14T10:54:10;101169.13;;;10.42;90.22
76201;BME280;64981;52.930;9.266;2024-02-14T10:56:40;101164.44;;;10.53;90.14
76201;BME280;64981;52.930;9.266;2024-02-14T10:59:09;101172.91;;;10.57;89.76
76201;BME280;64981;52.930;9.266;2024-02-14T11:01:38;101169.28;;;10.58;89.28
76201;BME280;64981;52.930;9.266;2024-02-14T11:04:04;101176.06;;;10.60;89.33
76201;BME280;64981;52.930;9.266;2024-02-14T11:06:30;101172.47;;;10.61;89.26
76201;BME280;64981;52.930;9.266;2024-02-14T11:08:57;101170.88;;;10.51;89.52
76201;BME280;64981;52.930;9.266;2024-02-14T11:11:24;101174.94;;;10.45;89.63
76201;BME280;64981;52.930;9.266;2024-02-14T11:13:53;101169.94;;;10.60;88.84
76201;BME280;64981;52.930;9.266;2024-02-14T11:16:28;101171.63;;;10.61;88.23
76201;BME280;64981;52.930;9.266;2024-02-14T11:19:12;101173.91;;;10.56;88.60
76201;BME280;64981;52.930;9.266;2024-02-14T11:21:41;101168.97;;;10.61;87.47
76201;BME280;64981;52.930;9.266;2024-02-14T11:24:11;101175.19;;;10.52;89.08
76201;BME280;64981;52.930;9.266;2024-02-14T11:26:50;101174.47;;;10.50;88.97
76201;BME280;64981;52.930;9.266;2024-02-14T11:29:18;101174.56;;;10.40;89.61
76201;BME280;64981;52.930;9.266;2024-02-14T11:31:45;101157.97;;;10.30;89.61
76201;BME280;64981;52.930;9.266;2024-02-14T11:34:14;101182.03;;;10.45;89.03
76201;BME280;64981;52.930;9.266;2024-02-14T11:36:43;101178.88;;;10.59;88.15
76201;BME280;64981;52.930;9.266;2024-02-14T11:39:10;101189.94;;;10.62;88.35
76201;BME280;64981;52.930;9.266;2024-02-14T11:41:38;101190.41;;;10.58;88.77
76201;BME280;64981;52.930;9.266;2024-02-14T11:44:04;101193.19;;;10.56;88.93
76201;BME280;64981;52.930;9.266;2024-02-14T11:46:31;101186.09;;;10.57;89.07
76201;BME280;64981;52.930;9.266;2024-02-14T11:48:59;101187.09;;;10.56;88.84
76201;BME280;64981;52.930;9.266;2024-02-14T11:51:29;101193.44;;;10.63;89.08
76201;BME280;64981;52.930;9.266;2024-02-14T11:53:57;101195.09;;;10.64;89.18
76201;BME280;64981;52.930;9.266;2024-02-14T11:56:31;101195.63;;;10.67;88.97
76201;BME280;64981;52.930;9.266;2024-02-14T11:59:00;101192.16;;;10.67;88.39
76201;BME280;64981;52.930;9.266;2024-02-14T12:01:34;101197.19;;;10.60;88.39
76201;BME280;64981;52.930;9.266;2024-02-14T12:04:04;101196.97;;;10.54;88.40
76201;BME280;64981;52.930;9.266;2024-02-14T12:06:31;101198.09;;;10.69;87.80
76201;BME280;64981;52.930;9.266;2024-02-14T12:09:04;101186.25;;;10.73;87.14
76201;BME280;64981;52.930;9.266;2024-02-14T12:11:31;101186.72;;;10.51;88.52
76201;BME280;64981;52.930;9.266;2024-02-14T12:14:05;101192.53;;;10.54;89.16
76201;BME280;64981;52.930;9.266;2024-02-14T12:16:31;101209.91;;;10.74;87.62
76201;BME280;64981;52.930;9.266;2024-02-14T12:19:08;101211.63;;;10.83;87.28
76201;BME280;64981;52.930;9.266;2024-02-14T12:21:36;101203.47;;;10.77;87.97
76201;BME280;64981;52.930;9.266;2024-02-14T12:24:07;101202.63;;;10.76;88.34
76201;BME280;64981;52.930;9.266;2024-02-14T12:26:33;101190.13;;;10.61;88.61
76201;BME280;64981;52.930;9.266;2024-02-14T12:29:02;101192.50;;;10.72;88.64
76201;BME280;64981;52.930;9.266;2024-02-14T12:31:29;101185.75;;;10.52;88.37
76201;BME280;64981;52.930;9.266;2024-02-14T12:33:57;101192.97;;;10.85;88.31
76201;BME280;64981;52.930;9.266;2024-02-14T12:36:26;101176.13;;;10.86;87.33
76201;BME280;64981;52.930;9.266;2024-02-14T12:38:54;101200.72;;;11.04;86.96
76201;BME280;64981;52.930;9.266;2024-02-14T12:41:19;101170.47;;;10.81;87.34
76201;BME280;64981;52.930;9.266;2024-02-14T12:43:45;101195.06;;;10.81;87.61
76201;BME280;64981;52.930;9.266;2024-02-14T12:46:11;101184.09;;;10.94;87.05
76201;BME280;64981;52.930;9.266;2024-02-14T12:48:36;101168.03;;;10.88;86.77
76201;BME280;64981;52.930;9.266;2024-02-14T12:51:02;101198.25;;;11.03;87.18
76201;BME280;64981;52.930;9.266;2024-02-14T12:53:28;101203.34;;;11.04;87.23
76201;BME280;64981;52.930;9.266;2024-02-14T12:55:53;101200.41;;;11.07;86.97